Nearby METAR Reports

 

PAEN - Kenai, Alaska, USA
Distance from station: ESE 2mi, 4km
Updated: Wed, 22-Nov-2017 7:53pm AKST
Overcast
Overcast
 Wind from ENE
Wind: ENE 12 mph , 19 km/h
Temperature: 16°F , -9°C
Wind Chill: 3°F , -16°C
Dew Point: 14°F , -10°C
Humidity: 93%
Barometer: 29.46 inHg , 997.6 hPa
Clouds: Overcast
Visibility: 10 miles , 16 km
Cloud details: Overcast 700 ft
2017/11/23 04:53 PAEN 230453Z 06010KT 10SM OVC007 M09/M10 A2946 RMK AO2 SLP979 T10941100
PASX - Soldotna, Alaska, USA
Distance from station: SE 12mi, 19km
Updated: Wed, 22-Nov-2017 7:56pm AKST
Mist, Overcast
Mist, Overcast
 Wind from E
Wind: E 5 mph , 7 km/h
Temperature: 10°F , -12°C
Wind Chill: 1°F , -17°C
Dew Point: 7°F , -14°C
Humidity: 85%
Summary: Mist
Clouds: Overcast
Visibility: 6 miles , 10 km
Cloud details: Overcast 11000 ft
2017/11/23 04:56 PASX 230456Z AUTO 09004KT 6SM BR OVC110 M12/M14 RMK AO2 SNB0357E08 SLPNO P0000 T11221139 FZRANO $
 
PANC - Anchorage Intl, Alaska, USA
Distance from station: NE 59mi, 96km
Updated: Wed, 22-Nov-2017 7:53pm AKST
Overcast
Overcast
 Wind from calm
Wind: Calm
Temperature: 12°F , -11°C
Dew Point: 10°F , -12°C
Humidity: 92%
Barometer: 29.46 inHg , 997.6 hPa
Clouds: Overcast
Visibility: 10 miles , 16 km
Cloud details: Partly cloudy 400 ft
Overcast 15000 ft
2017/11/23 04:53 PANC 230453Z 00000KT 10SM SCT004 OVC150 M11/M12 A2946 RMK AO2 SLP980 I1000 T11061122
PALH - Anchorage/Lake H, Alaska, USA
Distance from station: NE 61mi, 99km
Updated: Wed, 22-Nov-2017 7:53pm AKST
Few Clouds
Few Clouds
 Wind from NE
Wind: NE 3 mph , 6 km/h
Temperature: 12°F , -11°C
Dew Point: 9°F , -13°C
Humidity: 85%
Barometer: 29.48 inHg , 998.3 hPa
Clouds: Few Clouds
Visibility: 10 miles , 16 km
Cloud details: Few Clouds 500 ft
2017/11/23 04:53 PALH 230453Z 04003KT 10SM FEW005 M11/M13 A2948 RMK AO2 SLP984 T11111128
 
PAHO - Homer, Alaska, USA
Distance from station: S 66mi, 106km
Updated: Wed, 22-Nov-2017 7:53pm AKST
Overcast
Overcast
 Wind from ENE
Wind: ENE 10 mph , 17 km/h
Temperature: 25°F , -4°C
Wind Chill: 15°F , -9°C
Dew Point: 12°F , -11°C
Humidity: 59%
Barometer: 29.40 inHg , 995.6 hPa
Clouds: Overcast
Visibility: 10 miles , 16 km
Cloud details: Overcast 10000 ft
2017/11/23 04:53 PAHO 230453Z 06009KT 10SM OVC100 M04/M11 A2940 RMK AO2 SLP957 T10391106
PAMR - Anchorage/Merril, Alaska, USA
Distance from station: NE 66mi, 106km
Updated: Wed, 22-Nov-2017 7:53pm AKST
Mostly cloudy
Mostly cloudy
 Wind from NNE
Wind: NNE 5 mph , 7 km/h
Temperature: 10°F , -12°C
Wind Chill: 1°F , -17°C
Dew Point: 10°F , -12°C
Humidity: 100%
Barometer: 29.46 inHg , 997.6 hPa
Clouds: Mostly cloudy
Visibility: 10 miles , 16 km
Cloud details: Mostly cloudy 400 ft
2017/11/23 04:53 PAMR 230453Z 03004KT 10SM BKN004 M12/M12 A2946 RMK AO2 SLP980 T11171122 $
 
PAED - Elmendorf Afb, Alaska, USA
Distance from station: NE 69mi, 110km
Updated: Wed, 22-Nov-2017 7:56pm AKST
Mist, Overcast
Mist, Overcast
 Wind from calm
Wind: Calm
Temperature: 10°F , -12°C
Dew Point: 10°F , -12°C
Humidity: 100%
Barometer: 29.45 inHg , 997.3 hPa
Summary: Mist
Clouds: Overcast
Visibility: 5 miles , 8 km
Cloud details: Overcast 500 ft
2017/11/23 04:56 PAED 230456Z 00000KT 5SM BR OVC005 M12/M12 A2945 RMK AO2A SLP973 T11171122 $
PAWD - Seward, Alaska, USA
Distance from station: ESE 71mi, 115km
Updated: Wed, 22-Nov-2017 7:53pm AKST
Few Clouds
Few Clouds
 
Temperature: 27°F , -3°C
Dew Point: 10°F , -12°C
Humidity: 50%
Barometer: 29.41 inHg , 995.9 hPa
Clouds: Few Clouds
Visibility: 10 miles , 16 km
Cloud details: Few Clouds 11000 ft
2017/11/23 04:53 PAWD 230453Z AUTO 10SM FEW110 M03/M12 A2941 RMK AO2 SLP958 T10331122 TSNO $
 
PASC - Deadhorse, Alaska, USA
Distance from station: ENE 670mi, 1078km
Updated: Wed, 22-Nov-2017 7:53pm AKST
Overcast
Overcast
 Wind from SSW
Wind: SSW 8 mph , 13 km/h
Temperature: 5°F , -15°C
Wind Chill: -8°F , -22°C
Dew Point: 1°F , -17°C
Humidity: 85%
Barometer: 29.41 inHg , 995.9 hPa
Clouds: Overcast
Visibility: 10 miles , 16 km
Cloud details: Mostly cloudy 6500 ft
Overcast 8500 ft
2017/11/23 04:53 PASC 230453Z 21007KT 10SM BKN065 OVC085 M15/M17 A2941 RMK AO2 SLP961 T11501167
PAAD - Point Thomson, Alaska, USA
Distance from station: ENE 680mi, 1094km
Updated: Wed, 22-Nov-2017 8:15pm AKST
Overcast
Overcast
 Wind from SSE
Wind: SSE 5 mph , 7 km/h
Temperature: 3°F , -16°C
Wind Chill: -7°F , -22°C
Dew Point: -0°F , -18°C
Humidity: 85%
Barometer: 29.42 inHg , 996.3 hPa
Clouds: Overcast
Visibility: 10 miles , 16 km
Cloud details: Mostly cloudy 5000 ft
Mostly cloudy 7000 ft
Overcast 11000 ft
2017/11/23 05:15 PAAD 230515Z AUTO 15004KT 10SM BKN050 BKN070 OVC110 M16/M18 A2942 RMK AO2 T11601178


kenaipeople.com website

Dans Automotive

Lower Peninsula Power Sports

Freddies RoadHouse

Alaska Weather Net

United States Weather Group